createdAt,value
2023-05-15T00:02:22.714Z,68.08
2023-05-15T00:04:49.349Z,69.40
2023-05-15T00:07:15.738Z,70.32
2023-05-15T00:09:42.141Z,73.66
2023-05-15T00:12:08.580Z,76.02
2023-05-15T00:14:34.964Z,77.19
2023-05-15T00:17:01.401Z,78.41
2023-05-15T00:19:27.779Z,78.41
2023-05-15T00:21:54.167Z,77.84
2023-05-15T00:24:20.590Z,77.25
2023-05-15T00:26:47.003Z,76.31
2023-05-15T00:29:13.435Z,76.66
2023-05-15T00:31:39.902Z,76.02
2023-05-15T00:34:06.424Z,75.82
2023-05-15T00:36:32.814Z,75.65
2023-05-15T00:38:59.206Z,76.46
2023-05-15T00:41:25.634Z,76.36
2023-05-15T00:43:52.117Z,76.15
2023-05-15T00:46:18.648Z,74.01
2023-05-15T00:48:45.085Z,73.87
2023-05-15T00:51:11.497Z,74.02
2023-05-15T00:53:37.904Z,73.94
2023-05-15T00:56:04.318Z,74.63
2023-05-15T00:58:31.253Z,74.86
2023-05-15T01:00:57.750Z,75.17
2023-05-15T01:03:24.245Z,75.01
2023-05-15T01:05:50.733Z,75.19
2023-05-15T01:08:17.099Z,75.13
2023-05-15T01:10:43.507Z,75.50
2023-05-15T01:13:09.890Z,75.81
2023-05-15T01:15:36.335Z,76.33
2023-05-15T01:18:02.758Z,76.59
2023-05-15T01:20:29.178Z,76.56
2023-05-15T01:22:55.617Z,76.95
2023-05-15T01:25:22.062Z,76.81
2023-05-15T01:27:48.526Z,77.05
2023-05-15T01:30:17.019Z,76.77
2023-05-15T01:32:43.459Z,76.85
2023-05-15T01:35:09.896Z,75.51
2023-05-15T01:37:36.313Z,75.43
2023-05-15T01:40:02.770Z,75.99
2023-05-15T01:42:29.161Z,76.26
2023-05-15T01:44:55.524Z,76.27
2023-05-15T01:47:21.890Z,75.21
2023-05-15T01:49:48.262Z,74.81
2023-05-15T01:52:14.755Z,74.34
2023-05-15T01:54:41.133Z,75.22
2023-05-15T01:57:07.520Z,75.30
2023-05-15T01:59:33.954Z,75.29
2023-05-15T02:02:00.446Z,75.24
2023-05-15T02:04:26.862Z,75.70
2023-05-15T02:06:53.255Z,75.73
2023-05-15T02:09:19.617Z,75.31
2023-05-15T02:11:45.987Z,74.60
2023-05-15T02:14:12.409Z,75.00
2023-05-15T02:16:38.975Z,74.00
2023-05-15T02:19:05.464Z,74.14
2023-05-15T02:21:32.543Z,73.80
2023-05-15T02:23:58.907Z,73.11
2023-05-15T02:26:25.294Z,73.27
2023-05-15T02:28:51.729Z,73.51
2023-05-15T02:31:18.162Z,75.46
2023-05-15T02:33:44.596Z,75.77
2023-05-15T02:36:10.993Z,76.46
2023-05-15T02:38:37.428Z,77.30
2023-05-15T02:41:03.818Z,77.44
2023-05-15T02:43:30.255Z,77.90
2023-05-15T02:45:56.682Z,78.20
2023-05-15T02:48:23.069Z,78.14
2023-05-15T02:50:49.442Z,77.89
2023-05-15T02:53:15.812Z,77.66
2023-05-15T02:55:42.214Z,76.72
2023-05-15T02:58:08.644Z,76.72
2023-05-15T03:00:35.054Z,79.05
2023-05-15T03:03:01.452Z,79.44
2023-05-15T03:05:28.037Z,78.35
2023-05-15T03:07:54.698Z,78.35
2023-05-15T03:10:21.092Z,78.52
2023-05-15T03:12:47.514Z,78.77
2023-05-15T03:15:13.916Z,79.33
2023-05-15T03:17:40.348Z,78.28
2023-05-15T03:20:06.846Z,78.18
2023-05-15T03:22:33.296Z,78.27
2023-05-15T03:24:59.670Z,78.47
2023-05-15T03:27:26.047Z,78.82
2023-05-15T03:29:52.450Z,78.50
2023-05-15T03:32:18.815Z,77.83
2023-05-15T03:34:45.195Z,77.54
2023-05-15T03:37:11.579Z,78.02
2023-05-15T03:39:38.020Z,78.10
2023-05-15T03:42:04.464Z,78.58
2023-05-15T03:44:30.859Z,79.31
2023-05-15T03:46:57.323Z,78.69
2023-05-15T03:49:23.830Z,78.40
2023-05-15T03:51:50.214Z,78.37
2023-05-15T03:54:16.651Z,78.07
2023-05-15T03:56:43.049Z,77.36
2023-05-15T03:59:09.549Z,77.70
2023-05-15T04:01:47.289Z,78.00
2023-05-15T04:04:23.061Z,77.63
2023-05-15T04:06:49.468Z,77.80
2023-05-15T04:09:15.826Z,77.54
2023-05-15T04:11:42.276Z,77.53
2023-05-15T04:14:08.656Z,76.44
2023-05-15T04:16:35.098Z,76.99
2023-05-15T04:19:01.593Z,76.39
2023-05-15T04:21:28.025Z,76.88
2023-05-15T04:23:54.447Z,76.69
2023-05-15T04:26:20.895Z,76.57
2023-05-15T04:29:00.084Z,75.81
2023-05-15T04:31:30.309Z,75.84
2023-05-15T04:33:56.727Z,75.98
2023-05-15T04:36:23.111Z,76.10
2023-05-15T04:38:49.559Z,76.12
2023-05-15T04:41:16.038Z,76.06
2023-05-15T04:43:42.403Z,75.37
2023-05-15T04:46:08.836Z,74.31
2023-05-15T04:48:35.277Z,74.46
2023-05-15T04:51:01.673Z,74.96
2023-05-15T04:53:28.111Z,74.35
2023-05-15T04:55:54.516Z,73.93
2023-05-15T04:58:20.884Z,73.15
2023-05-15T05:00:47.277Z,74.40
2023-05-15T05:03:13.764Z,74.54
2023-05-15T05:05:40.196Z,74.42
2023-05-15T05:08:06.730Z,75.71
2023-05-15T05:10:33.137Z,76.30
2023-05-15T05:12:59.560Z,76.57
2023-05-15T05:15:26.110Z,77.14
2023-05-15T05:17:52.820Z,76.09
2023-05-15T05:20:19.219Z,76.49
2023-05-15T05:22:45.609Z,76.68
2023-05-15T05:25:12.010Z,77.50
2023-05-15T05:27:38.433Z,76.56
2023-05-15T05:30:04.905Z,76.92
2023-05-15T05:32:31.356Z,78.00
2023-05-15T05:34:57.839Z,78.58
2023-05-15T05:37:24.232Z,78.16
2023-05-15T05:39:50.679Z,77.82
2023-05-15T05:42:17.075Z,76.26
2023-05-15T05:44:43.542Z,74.06
2023-05-15T05:47:09.993Z,73.43
2023-05-15T05:49:36.432Z,72.21
2023-05-15T05:52:02.829Z,72.32
2023-05-15T05:54:29.197Z,72.18
2023-05-15T05:56:55.584Z,73.42
2023-05-15T05:59:21.948Z,75.38
2023-05-15T06:01:48.363Z,77.05
2023-05-15T06:04:16.146Z,78.19
2023-05-15T06:06:43.282Z,78.20
2023-05-15T06:09:09.681Z,77.25
2023-05-15T06:11:36.090Z,77.51
2023-05-15T06:14:02.526Z,77.08
2023-05-15T06:16:28.960Z,77.81
2023-05-15T06:18:55.442Z,76.70
2023-05-15T06:21:21.857Z,76.44
2023-05-15T06:23:48.228Z,77.27
2023-05-15T06:26:14.677Z,78.29
2023-05-15T06:28:41.064Z,79.89
2023-05-15T06:31:07.507Z,78.20
2023-05-15T06:33:33.948Z,78.37
2023-05-15T06:36:00.350Z,78.17
2023-05-15T06:38:26.728Z,77.60
2023-05-15T06:40:53.126Z,77.26
2023-05-15T06:43:19.539Z,76.92
2023-05-15T06:45:46.018Z,75.22
2023-05-15T06:48:12.507Z,74.27
2023-05-15T06:50:39.020Z,74.23
2023-05-15T06:53:05.463Z,75.23
2023-05-15T06:55:31.838Z,74.92
2023-05-15T06:57:58.278Z,72.06
2023-05-15T07:00:24.637Z,71.42
2023-05-15T07:02:51.047Z,71.35
2023-05-15T07:05:17.513Z,71.16
2023-05-15T07:07:43.924Z,72.39
2023-05-15T07:10:10.333Z,71.94
2023-05-15T07:12:36.721Z,72.63
2023-05-15T07:15:03.101Z,72.59
2023-05-15T07:17:29.571Z,72.81
2023-05-15T07:19:56.010Z,71.83
2023-05-15T07:22:22.399Z,70.89
2023-05-15T07:24:48.813Z,70.04
2023-05-15T07:27:15.188Z,71.47
2023-05-15T07:29:41.641Z,71.76
2023-05-15T07:32:08.039Z,69.80
2023-05-15T07:34:34.471Z,72.03
2023-05-15T07:37:00.846Z,74.58
2023-05-15T07:39:27.301Z,72.61
2023-05-15T07:41:53.737Z,75.33
2023-05-15T07:44:20.180Z,75.85
2023-05-15T07:46:46.669Z,75.16
2023-05-15T07:49:13.102Z,76.00
2023-05-15T07:51:39.701Z,77.19
2023-05-15T07:54:06.077Z,78.83
2023-05-15T07:56:32.445Z,78.06
2023-05-15T07:58:58.885Z,77.30
2023-05-15T08:01:25.253Z,74.10
2023-05-15T08:03:51.822Z,68.33
2023-05-15T08:06:18.258Z,71.29
2023-05-15T08:08:44.628Z,68.39
2023-05-15T08:11:11.071Z,67.96
2023-05-15T08:13:37.434Z,68.83
2023-05-15T08:16:03.845Z,67.51
2023-05-15T08:18:30.312Z,68.36
2023-05-15T08:20:56.753Z,69.73
2023-05-15T08:23:23.152Z,70.34
2023-05-15T08:25:49.790Z,70.30
2023-05-15T08:28:16.238Z,68.68
2023-05-15T08:30:42.644Z,70.35
2023-05-15T08:33:09.150Z,69.82
2023-05-15T08:35:35.647Z,70.95
2023-05-15T08:38:02.113Z,73.24
2023-05-15T08:40:38.424Z,77.54
2023-05-15T08:43:05.864Z,78.89
2023-05-15T08:45:32.225Z,77.49
2023-05-15T08:47:58.675Z,77.54
2023-05-15T08:50:25.185Z,76.31
2023-05-15T08:52:51.584Z,76.25
2023-05-15T08:55:18.015Z,76.50
2023-05-15T08:57:44.477Z,77.09
2023-05-15T09:00:10.874Z,75.57
2023-05-15T09:02:37.359Z,74.97
2023-05-15T09:05:03.932Z,74.70
2023-05-15T09:07:30.287Z,75.12
2023-05-15T09:09:56.675Z,75.39
2023-05-15T09:12:23.078Z,75.09
2023-05-15T09:14:49.464Z,73.08
2023-05-15T09:17:15.850Z,71.86
2023-05-15T09:19:42.334Z,70.80
2023-05-15T09:22:08.828Z,70.25
2023-05-15T09:24:35.197Z,70.35
2023-05-15T09:27:01.620Z,68.77
2023-05-15T09:29:28.070Z,69.13
2023-05-15T09:31:54.579Z,69.51
2023-05-15T09:34:21.007Z,69.90
2023-05-15T09:36:47.412Z,69.86
2023-05-15T09:39:13.897Z,68.47
2023-05-15T09:41:40.340Z,69.19
2023-05-15T09:44:06.788Z,67.65
2023-05-15T09:46:33.291Z,68.88
2023-05-15T09:48:59.739Z,69.28
2023-05-15T09:51:26.108Z,68.07
2023-05-15T09:53:52.518Z,66.00
2023-05-15T09:56:18.893Z,66.46
2023-05-15T09:58:45.290Z,66.82
2023-05-15T10:01:11.750Z,65.95
2023-05-15T10:03:38.127Z,65.78
2023-05-15T10:06:04.734Z,67.77
2023-05-15T10:08:31.434Z,66.86
2023-05-15T10:10:57.823Z,66.02
2023-05-15T10:13:24.197Z,65.38
2023-05-15T10:15:50.649Z,67.20
2023-05-15T10:18:17.045Z,67.65
2023-05-15T10:20:43.429Z,67.28
2023-05-15T10:23:09.800Z,66.42
2023-05-15T10:25:36.250Z,66.96
2023-05-15T10:28:02.642Z,67.22
2023-05-15T10:30:29.055Z,66.63
2023-05-15T10:32:55.634Z,66.76
2023-05-15T10:35:22.052Z,67.22
2023-05-15T10:37:48.461Z,66.24
2023-05-15T10:40:14.869Z,63.96
2023-05-15T10:42:41.314Z,64.83
2023-05-15T10:45:07.768Z,63.47
2023-05-15T10:47:34.168Z,61.98
2023-05-15T10:50:00.600Z,61.09
2023-05-15T10:52:27.006Z,60.22
2023-05-15T10:54:53.406Z,60.55
2023-05-15T10:57:19.863Z,61.38
2023-05-15T10:59:46.267Z,61.13
2023-05-15T11:02:12.659Z,58.36
2023-05-15T11:04:39.101Z,54.91
2023-05-15T11:07:05.547Z,54.46
2023-05-15T11:09:31.962Z,53.79
2023-05-15T11:11:58.334Z,53.97
2023-05-15T11:14:24.736Z,52.89
2023-05-15T11:16:51.255Z,51.03
2023-05-15T11:19:17.767Z,52.58
2023-05-15T11:21:44.199Z,51.62
2023-05-15T11:24:10.607Z,50.75
2023-05-15T11:26:37.007Z,51.17
2023-05-15T11:29:03.411Z,49.27
2023-05-15T11:31:29.870Z,49.72
2023-05-15T11:33:56.301Z,50.41
2023-05-15T11:36:22.705Z,50.41
2023-05-15T11:38:49.243Z,49.90
2023-05-15T11:41:15.650Z,49.24
2023-05-15T11:43:42.046Z,48.86
2023-05-15T11:46:08.664Z,49.86
2023-05-15T11:48:35.204Z,52.41
2023-05-15T11:51:01.713Z,54.81
2023-05-15T11:53:28.156Z,57.32
2023-05-15T11:55:54.602Z,59.00
2023-05-15T11:58:21.081Z,59.46
2023-05-15T12:00:47.514Z,60.39
2023-05-15T12:03:14.013Z,59.52
2023-05-15T12:05:50.257Z,59.65
2023-05-15T12:08:24.379Z,58.48
2023-05-15T12:10:50.776Z,58.79
2023-05-15T12:13:17.134Z,58.32
2023-05-15T12:15:43.580Z,59.01
2023-05-15T12:18:09.962Z,59.65
2023-05-15T12:20:36.353Z,59.33
2023-05-15T12:23:02.776Z,59.64
2023-05-15T12:25:29.169Z,59.99
2023-05-15T12:27:55.574Z,59.94
2023-05-15T12:30:21.984Z,59.33
2023-05-15T12:32:48.492Z,57.57
2023-05-15T12:35:15.001Z,56.59
2023-05-15T12:37:41.417Z,56.70
2023-05-15T12:40:07.795Z,57.48
2023-05-15T12:42:34.171Z,56.79
2023-05-15T12:45:00.587Z,56.78
2023-05-15T12:47:27.004Z,56.87
2023-05-15T12:49:53.404Z,57.72
2023-05-15T12:52:19.785Z,59.26
2023-05-15T12:54:46.167Z,61.94
2023-05-15T12:57:12.618Z,63.57
2023-05-15T12:59:39.038Z,64.33
2023-05-15T13:02:05.446Z,64.73
2023-05-15T13:04:32.087Z,65.74
2023-05-15T13:06:58.510Z,65.45
2023-05-15T13:09:25.099Z,66.55
2023-05-15T13:11:51.459Z,63.02
2023-05-15T13:14:17.892Z,64.01
2023-05-15T13:16:44.307Z,66.28
2023-05-15T13:19:10.740Z,64.84
2023-05-15T13:21:37.201Z,64.87
2023-05-15T13:24:03.603Z,66.38
2023-05-15T13:26:29.994Z,63.51
2023-05-15T13:28:56.340Z,64.54
2023-05-15T13:31:22.944Z,63.88
2023-05-15T13:33:49.346Z,64.93
2023-05-15T13:36:15.842Z,64.57
2023-05-15T13:38:42.245Z,64.92
2023-05-15T13:41:08.656Z,65.54
2023-05-15T13:43:35.133Z,65.64
2023-05-15T13:46:01.510Z,64.98
2023-05-15T13:48:27.931Z,65.35
2023-05-15T13:50:54.331Z,64.14
2023-05-15T13:53:20.756Z,67.13
2023-05-15T13:55:47.254Z,65.83
2023-05-15T13:58:13.674Z,65.07
2023-05-15T14:00:40.098Z,68.09
2023-05-15T14:03:06.665Z,66.99
2023-05-15T14:05:33.153Z,66.53
2023-05-15T14:07:59.539Z,64.66
2023-05-15T14:10:26.168Z,64.49
2023-05-15T14:12:52.761Z,65.51
2023-05-15T14:15:19.163Z,66.62
2023-05-15T14:17:45.605Z,67.11
2023-05-15T14:20:12.026Z,66.39
2023-05-15T14:22:38.400Z,66.21
2023-05-15T14:25:04.856Z,64.21
2023-05-15T14:27:31.257Z,62.98
2023-05-15T14:29:57.662Z,63.22
2023-05-15T14:32:25.407Z,63.67
2023-05-15T14:34:51.825Z,63.19
2023-05-15T14:37:18.217Z,64.33
2023-05-15T14:39:44.601Z,58.18
2023-05-15T14:42:11.054Z,58.44
2023-05-15T14:44:37.457Z,61.82
2023-05-15T14:47:03.842Z,66.09
2023-05-15T14:49:30.264Z,67.36
2023-05-15T14:51:56.614Z,66.31
2023-05-15T14:54:23.044Z,67.59
2023-05-15T14:56:49.424Z,66.93
2023-05-15T14:59:15.864Z,67.59
2023-05-15T15:01:42.343Z,65.79
2023-05-15T15:04:09.019Z,60.69
2023-05-15T15:06:35.441Z,62.65
2023-05-15T15:09:01.846Z,64.62
2023-05-15T15:11:28.210Z,66.17
2023-05-15T15:13:54.671Z,64.36
2023-05-15T15:16:21.141Z,62.80
2023-05-15T15:18:47.759Z,63.00
2023-05-15T15:21:14.219Z,62.98
2023-05-15T15:23:40.587Z,60.90
2023-05-15T15:26:07.109Z,61.57
2023-05-15T15:28:33.572Z,62.71
2023-05-15T15:31:00.010Z,60.87
2023-05-15T15:33:26.499Z,57.11
2023-05-15T15:35:52.919Z,59.74
2023-05-15T15:38:19.320Z,61.54
2023-05-15T15:40:45.739Z,62.90
2023-05-15T15:43:12.108Z,62.92
2023-05-15T15:45:38.508Z,60.68
2023-05-15T15:48:05.065Z,61.56
2023-05-15T15:50:31.480Z,62.73
2023-05-15T15:52:57.875Z,64.08
2023-05-15T15:55:24.357Z,63.59
2023-05-15T15:57:50.843Z,63.76
2023-05-15T16:00:17.307Z,63.88
2023-05-15T16:02:43.738Z,63.19
2023-05-15T16:05:10.209Z,61.96
2023-05-15T16:07:36.633Z,63.11
2023-05-15T16:10:12.601Z,61.24
2023-05-15T16:12:39.468Z,61.76
2023-05-15T16:15:21.016Z,62.22
2023-05-15T16:17:48.660Z,62.24
2023-05-15T16:20:15.060Z,60.70
2023-05-15T16:22:41.473Z,59.81
2023-05-15T16:25:07.952Z,58.96
2023-05-15T16:27:34.467Z,60.06
2023-05-15T16:30:00.928Z,59.45
2023-05-15T16:32:27.439Z,59.08
2023-05-15T16:34:53.852Z,59.80
2023-05-15T16:37:20.235Z,60.01
2023-05-15T16:39:46.707Z,59.72
2023-05-15T16:42:13.078Z,59.40
2023-05-15T16:44:39.578Z,59.86
2023-05-15T16:47:05.958Z,59.55
2023-05-15T16:49:32.372Z,60.13
2023-05-15T16:51:58.855Z,61.24
2023-05-15T16:54:25.281Z,61.63
2023-05-15T16:56:51.702Z,60.13
2023-05-15T16:59:18.090Z,59.50
2023-05-15T17:01:44.621Z,61.33
2023-05-15T17:04:11.103Z,61.54
2023-05-15T17:06:37.565Z,60.69
2023-05-15T17:09:03.949Z,62.60
2023-05-15T17:11:30.369Z,63.57
2023-05-15T17:13:56.734Z,64.06
2023-05-15T17:16:23.189Z,65.54
2023-05-15T17:18:49.609Z,65.70
2023-05-15T17:21:15.999Z,65.66
2023-05-15T17:23:42.384Z,65.83
2023-05-15T17:26:08.772Z,65.10
2023-05-15T17:28:36.291Z,65.77
2023-05-15T17:31:04.304Z,65.89
2023-05-15T17:33:30.669Z,65.39
2023-05-15T17:35:57.149Z,66.17
2023-05-15T17:38:23.510Z,66.49
2023-05-15T17:40:49.945Z,66.32
2023-05-15T17:43:16.345Z,66.53
2023-05-15T17:45:42.796Z,66.73
2023-05-15T17:48:09.310Z,66.69
2023-05-15T17:50:37.712Z,67.17
2023-05-15T17:53:04.278Z,67.73
2023-05-15T17:55:30.661Z,68.28
2023-05-15T17:57:57.045Z,66.91
2023-05-15T18:00:23.439Z,67.72
2023-05-15T18:02:49.904Z,68.60
2023-05-15T18:05:16.361Z,69.49
2023-05-15T18:07:42.846Z,71.15
2023-05-15T18:10:09.283Z,71.88
2023-05-15T18:12:35.690Z,71.75
2023-05-15T18:15:02.104Z,72.59
2023-05-15T18:17:28.530Z,72.53
2023-05-15T18:19:54.967Z,73.15
2023-05-15T18:22:21.399Z,73.64
2023-05-15T18:24:47.818Z,72.68
2023-05-15T18:27:14.333Z,73.22
2023-05-15T18:29:40.754Z,73.86
2023-05-15T18:32:07.317Z,72.94
2023-05-15T18:34:33.742Z,72.96
2023-05-15T18:37:00.198Z,73.34
2023-05-15T18:39:26.646Z,73.65
2023-05-15T18:41:53.099Z,73.01
2023-05-15T18:44:19.598Z,73.31
2023-05-15T18:46:46.076Z,72.64
2023-05-15T18:49:16.106Z,72.23
2023-05-15T18:51:42.628Z,72.01
2023-05-15T18:54:09.099Z,72.23
2023-05-15T18:56:35.534Z,72.05
2023-05-15T18:59:01.969Z,72.33
2023-05-15T19:01:28.401Z,71.74
2023-05-15T19:03:54.945Z,73.42
2023-05-15T19:06:21.683Z,69.04
2023-05-15T19:08:48.182Z,68.27
2023-05-15T19:11:14.690Z,67.63
2023-05-15T19:13:41.248Z,68.31
2023-05-15T19:16:10.051Z,68.13
2023-05-15T19:18:36.656Z,68.18
2023-05-15T19:21:03.145Z,67.61
2023-05-15T19:23:29.698Z,68.62
2023-05-15T19:25:56.170Z,68.50
2023-05-15T19:28:22.715Z,69.28
2023-05-15T19:30:49.238Z,70.10
2023-05-15T19:33:15.754Z,71.00
2023-05-15T19:35:42.287Z,71.62
2023-05-15T19:38:08.734Z,72.04
2023-05-15T19:40:35.130Z,72.15
2023-05-15T19:43:01.639Z,72.70
2023-05-15T19:45:30.222Z,71.66
2023-05-15T19:47:56.790Z,71.33
2023-05-15T19:50:23.320Z,70.77
2023-05-15T19:52:49.805Z,70.34
2023-05-15T19:55:16.282Z,69.16
2023-05-15T19:57:42.788Z,67.92
2023-05-15T20:00:09.312Z,68.32
2023-05-15T20:02:35.828Z,67.45
2023-05-15T20:05:02.348Z,67.01
2023-05-15T20:07:28.802Z,66.88
2023-05-15T20:09:55.223Z,66.80
2023-05-15T20:12:21.676Z,66.93
2023-05-15T20:14:48.204Z,66.16
2023-05-15T20:17:14.624Z,65.98
2023-05-15T20:19:41.048Z,67.49
2023-05-15T20:22:07.469Z,67.13
2023-05-15T20:24:33.899Z,66.92
2023-05-15T20:27:00.288Z,67.00
2023-05-15T20:29:26.714Z,66.96
2023-05-15T20:31:53.395Z,66.48
2023-05-15T20:34:19.884Z,66.64
2023-05-15T20:36:46.369Z,66.78
2023-05-15T20:39:12.738Z,66.66
2023-05-15T20:41:39.114Z,66.54
2023-05-15T20:44:05.560Z,66.02
2023-05-15T20:46:32.139Z,66.30
2023-05-15T20:48:58.612Z,66.21
2023-05-15T20:51:25.004Z,66.81
2023-05-15T20:53:51.428Z,67.46
2023-05-15T20:56:17.818Z,68.15
2023-05-15T20:58:44.208Z,69.22
2023-05-15T21:01:10.656Z,67.85
2023-05-15T21:03:37.138Z,68.49
2023-05-15T21:06:03.591Z,68.39
2023-05-15T21:08:29.963Z,68.78
2023-05-15T21:10:56.685Z,68.58
2023-05-15T21:13:23.112Z,68.74
2023-05-15T21:15:49.540Z,68.52
2023-05-15T21:18:15.930Z,68.49
2023-05-15T21:20:42.331Z,68.76
2023-05-15T21:23:08.735Z,68.20
2023-05-15T21:25:35.177Z,68.04
2023-05-15T21:28:01.578Z,67.75
2023-05-15T21:30:28.081Z,68.17
2023-05-15T21:32:54.719Z,68.11
2023-05-15T21:35:21.135Z,67.33
2023-05-15T21:37:47.542Z,67.16
2023-05-15T21:40:13.942Z,67.24
2023-05-15T21:42:40.366Z,67.70
2023-05-15T21:45:07.065Z,68.07
2023-05-15T21:47:33.576Z,68.01
2023-05-15T21:49:59.959Z,67.71
2023-05-15T21:52:26.333Z,67.70
2023-05-15T21:54:52.713Z,67.53
2023-05-15T21:57:19.120Z,66.58
2023-05-15T21:59:45.598Z,66.54
2023-05-15T22:02:12.083Z,67.52
2023-05-15T22:04:38.600Z,66.77
2023-05-15T22:07:04.976Z,66.50
2023-05-15T22:09:31.446Z,67.04
2023-05-15T22:11:57.818Z,66.68
2023-05-15T22:14:24.348Z,67.55
2023-05-15T22:16:51.044Z,67.08
2023-05-15T22:19:31.676Z,67.63
2023-05-15T22:21:59.314Z,67.83
2023-05-15T22:24:25.701Z,67.58
2023-05-15T22:26:52.086Z,67.60
2023-05-15T22:29:18.503Z,67.23
2023-05-15T22:31:44.950Z,67.45
2023-05-15T22:34:11.366Z,66.87
2023-05-15T22:36:37.740Z,66.79
2023-05-15T22:39:04.148Z,67.03
2023-05-15T22:41:30.532Z,67.06
2023-05-15T22:43:56.913Z,67.38
2023-05-15T22:46:23.434Z,67.23
2023-05-15T22:48:49.902Z,67.11
2023-05-15T22:51:16.306Z,66.38
2023-05-15T22:53:42.701Z,66.46
2023-05-15T22:56:09.200Z,66.81
2023-05-15T22:58:35.591Z,66.61
2023-05-15T23:01:02.015Z,66.33
2023-05-15T23:03:28.514Z,66.29
2023-05-15T23:05:54.936Z,65.71
2023-05-15T23:08:21.497Z,66.26
2023-05-15T23:10:47.873Z,65.72
2023-05-15T23:13:14.281Z,65.49
2023-05-15T23:15:40.766Z,65.55
2023-05-15T23:18:07.240Z,65.84
2023-05-15T23:20:33.668Z,65.77
2023-05-15T23:23:00.123Z,65.39
2023-05-15T23:25:26.501Z,65.31
2023-05-15T23:27:52.908Z,65.96
2023-05-15T23:30:19.367Z,65.97
2023-05-15T23:32:45.833Z,65.96
2023-05-15T23:35:12.253Z,66.50
2023-05-15T23:37:38.636Z,66.55
2023-05-15T23:40:05.027Z,65.87
2023-05-15T23:42:31.422Z,66.39
2023-05-15T23:44:57.854Z,66.21
2023-05-15T23:47:24.320Z,65.61
2023-05-15T23:49:50.731Z,66.61
2023-05-15T23:52:17.126Z,65.84
2023-05-15T23:54:43.528Z,66.31
2023-05-15T23:57:09.898Z,65.94
2023-05-15T23:59:36.345Z,65.62
